Time;durP1;ratioP1;P1;durP2;ratioP2;P2;SDS_P1;SDS_P2;PMS_P1;PMS_P2;Temp;Humidity;BMP_temperature;BMP_pressure;BME280_temperature;BME280_humidity;BME280_pressure;Samples;Min_cycle;Max_cycle;Signal;HPM_P1;HPM_P2
2021/01/31 05:01:23;;;;;;;;;;;5.90;99.90;;;;;;5;36050068;42072800;-84
2021/01/31 05:04:51;;;;;;;;;;;5.90;99.90;;;;;;5;36017143;41283084;-84
2021/01/31 05:08:18;;;;;;;;;;;5.80;99.90;;;;;;5;36018363;41271233;-84
2021/01/31 05:11:39;;;;;;;;;;;5.80;99.90;;;;;;5;36020582;41273449;-82
2021/01/31 05:14:57;;;;;;;;;;;5.80;99.90;;;;;;5;36018321;41270280;-81
2021/01/31 05:18:18;;;;;;;;;;;5.90;99.90;;;;;;5;36018092;41272531;-84
2021/01/31 05:21:41;;;;;;;;;;;5.80;99.90;;;;;;5;36018326;41272284;-83
2021/01/31 05:24:56;;;;;;;;;;;5.70;99.90;;;;;;5;36020833;41273680;-82
2021/01/31 05:27:28;;;;;;;16.23;9.70;;;5.70;99.90;;;;;;2677911;29;39773028;-83
2021/01/31 05:29:53;;;;;;;17.13;10.60;;;5.60;99.90;;;;;;4750039;29;87127;-83
2021/01/31 05:32:20;;;;;;;16.48;10.60;;;5.60;99.90;;;;;;4750114;29;89611;-81
2021/01/31 05:34:57;;;;;;;15.38;10.13;;;5.70;99.90;;;;;;4749494;29;87661;-80
2021/01/31 05:37:28;;;;;;;16.77;10.18;;;5.70;99.90;;;;;;4749224;29;86318;-82
2021/01/31 05:40:06;;;;;;;18.63;11.50;;;5.70;99.90;;;;;;4750223;29;87361;-83
2021/01/31 05:42:39;;;;;;;16.00;10.40;;;5.70;99.90;;;;;;4732186;29;87511;-83
2021/01/31 05:45:20;;;;;;;17.08;10.55;;;5.70;99.90;;;;;;4749674;29;87599;-83
2021/01/31 05:47:47;;;;;;;;;;;5.80;99.90;;;;;;4753211;29;87780;-84
2021/01/31 05:50:28;;;;;;;13.02;9.20;;;5.80;99.90;;;;;;4792784;29;86233;-82
2021/01/31 05:52:54;;;;;;;;;;;5.70;99.90;;;;;;4821684;29;20047;-82
2021/01/31 05:55:27;;;;;;;9.77;7.00;;;5.70;99.90;;;;;;4805722;29;19940;-83
2021/01/31 05:57:53;;;;;;;11.10;7.03;;;5.70;99.90;;;;;;4325013;29;3367520;-82
2021/01/31 06:00:32;;;;;;;9.93;7.20;;;5.60;99.90;;;;;;4773690;29;96617;-84
2021/01/31 06:03:09;;;;;;;10.88;6.57;;;5.60;99.90;;;;;;4813297;29;38820;-82
2021/01/31 06:05:35;;;;;;;10.23;6.47;;;5.70;99.90;;;;;;4808969;29;26205;-82
2021/01/31 06:09:22;;;;;;;7.80;4.85;;;5.70;99.90;;;;;;1820390;29;41271492;-82
2021/01/31 06:12:46;;;;;;;;;;;5.70;99.90;;;;;;5;38272774;41271849;-82
2021/01/31 06:16:15;;;;;;;;;;;5.80;99.90;;;;;;5;36018193;41272157;-82
2021/01/31 06:19:33;;;;;;;;;;;5.80;99.90;;;;;;5;36018500;41273051;-82
2021/01/31 06:22:52;;;;;;;;;;;5.70;99.90;;;;;;5;36018672;41272936;-82
2021/01/31 06:26:31;;;;;;;;;;;5.70;99.90;;;;;;5;36019951;41271296;-82
2021/01/31 06:30:08;;;;;;;;;;;5.70;99.90;;;;;;5;36016459;42020915;-82
2021/01/31 06:33:23;;;;;;;;;;;5.70;99.90;;;;;;5;36014910;41270152;-82
2021/01/31 06:36:42;;;;;;;;;;;5.80;99.90;;;;;;5;36018488;41276623;-83
2021/01/31 06:40:05;;;;;;;;;;;5.90;99.90;;;;;;5;36021322;41272448;-83
2021/01/31 06:43:31;;;;;;;;;;;5.90;99.90;;;;;;5;36018441;41273037;-83
2021/01/31 06:47:04;;;;;;;;;;;5.80;99.90;;;;;;5;36019034;41273934;-81
2021/01/31 06:50:33;;;;;;;;;;;5.90;99.90;;;;;;5;36021625;41273712;-82
2021/01/31 06:53:54;;;;;;;;;;;5.90;99.90;;;;;;5;36020447;41273294;-82
2021/01/31 06:57:54;;;;;;;;;;;5.90;99.90;;;;;;5;36020657;41270643;-82
2021/01/31 07:01:15;;;;;;;;;;;5.70;99.90;;;;;;5;36020930;41273716;-81
2021/01/31 07:04:36;;;;;;;;;;;5.80;99.90;;;;;;5;36021332;42021967;-81
2021/01/31 07:08:05;;;;;;;;;;;5.90;99.90;;;;;;5;36019194;41272186;-81
2021/01/31 07:11:47;;;;;;;;;;;5.90;99.90;;;;;;5;36018060;41271765;-82
2021/01/31 07:15:04;;;;;;;;;;;5.80;99.90;;;;;;5;36018475;41275089;-80
2021/01/31 07:18:25;;;;;;;;;;;5.70;99.90;;;;;;5;36019304;41274748;-81
2021/01/31 07:21:48;;;;;;;;;;;5.60;99.90;;;;;;5;36019553;41273917;-81
2021/01/31 07:25:08;;;;;;;;;;;5.60;99.90;;;;;;5;36019020;41274206;-82
2021/01/31 07:28:31;;;;;;;;;;;5.50;99.90;;;;;;5;36019174;41273146;-82
2021/01/31 07:31:50;;;;;;;;;;;5.50;99.90;;;;;;5;36020493;41272187;-82
2021/01/31 07:35:11;;;;;;;;;;;5.60;99.90;;;;;;5;36017648;41272125;-83
2021/01/31 07:38:39;;;;;;;;;;;5.60;99.90;;;;;;5;36019955;42020061;-82
2021/01/31 07:41:55;;;;;;;;;;;5.40;99.90;;;;;;5;36019722;41272064;-82
2021/01/31 07:45:20;;;;;;;;;;;5.40;99.90;;;;;;5;36018195;41273406;-81
2021/01/31 07:48:43;;;;;;;;;;;5.40;99.90;;;;;;5;36019470;41271649;-83
2021/01/31 07:52:06;;;;;;;;;;;5.40;99.90;;;;;;5;36018234;41268517;-82
2021/01/31 07:55:26;;;;;;;;;;;5.50;99.90;;;;;;5;36022467;41271622;-83
2021/01/31 07:58:45;;;;;;;;;;;5.50;99.90;;;;;;5;36019662;41271883;-82
2021/01/31 08:02:07;;;;;;;;;;;5.50;99.90;;;;;;5;36020892;41271508;-84
2021/01/31 08:05:46;;;;;;;;;;;5.60;99.90;;;;;;5;36020744;41275284;-82
2021/01/31 08:09:01;;;;;;;;;;;5.70;99.90;;;;;;5;36019302;41270639;-83
2021/01/31 08:12:41;;;;;;;;;;;5.90;99.90;;;;;;5;36019635;42023796;-86
2021/01/31 08:16:21;;;;;;;;;;;6.10;99.90;;;;;;5;36018343;41271218;-82
2021/01/31 08:19:41;;;;;;;;;;;6.20;99.90;;;;;;5;36023540;41271385;-85
2021/01/31 08:22:58;;;;;;;;;;;6.30;99.90;;;;;;5;36022421;41272418;-86
2021/01/31 08:26:36;;;;;;;;;;;6.30;99.90;;;;;;5;36018010;41270784;-87
2021/01/31 08:30:12;;;;;;;;;;;6.40;99.90;;;;;;5;36020091;41275086;-87
2021/01/31 08:33:34;;;;;;;;;;;6.40;99.90;;;;;;5;36016478;41270368;-83
2021/01/31 08:36:49;;;;;;;;;;;6.50;99.90;;;;;;5;36019144;41272794;-88
2021/01/31 08:40:15;;;;;;;;;;;6.50;99.90;;;;;;5;36019308;41272182;-84
2021/01/31 08:43:41;;;;;;;;;;;6.60;99.90;;;;;;5;36020785;41273481;-89
2021/01/31 08:47:03;;;;;;;;;;;6.80;99.90;;;;;;5;36018235;42023116;-87
2021/01/31 08:50:18;;;;;;;;;;;7.00;99.90;;;;;;5;36019908;41272182;-87
2021/01/31 08:53:37;;;;;;;;;;;7.20;99.90;;;;;;5;36017923;41273010;-87
2021/01/31 08:56:59;;;;;;;;;;;7.30;99.90;;;;;;5;36018913;41274359;-87
2021/01/31 09:00:22;;;;;;;;;;;7.60;99.90;;;;;;5;36018264;41272563;-85
2021/01/31 09:03:40;;;;;;;;;;;7.70;99.90;;;;;;5;36018175;41271725;-84
2021/01/31 09:07:00;;;;;;;;;;;7.90;99.90;;;;;;5;36016304;41270533;-84
2021/01/31 09:10:34;;;;;;;;;;;7.90;99.90;;;;;;5;36016855;41274424;-86
2021/01/31 09:13:54;;;;;;;;;;;7.90;99.90;;;;;;5;36017327;41271140;-82
2021/01/31 09:17:11;;;;;;;;;;;7.90;99.90;;;;;;5;36017996;41271361;-85
2021/01/31 09:20:31;;;;;;;;;;;8.00;99.90;;;;;;5;36017074;42020217;-83
2021/01/31 09:23:53;;;;;;;;;;;8.00;99.90;;;;;;5;36016315;41271530;-84
2021/01/31 09:27:21;;;;;;;;;;;8.10;99.90;;;;;;5;36019218;41271793;-84
2021/01/31 09:30:38;;;;;;;;;;;8.20;99.90;;;;;;5;36020065;41272394;-83
2021/01/31 09:33:58;;;;;;;;;;;8.10;99.90;;;;;;5;36019730;41273426;-85
2021/01/31 09:37:22;;;;;;;;;;;8.00;99.90;;;;;;5;36017227;41272845;-84
2021/01/31 09:40:44;;;;;;;;;;;8.00;99.90;;;;;;5;36018536;41274269;-85
2021/01/31 09:44:06;;;;;;;;;;;8.00;99.90;;;;;;5;36020232;41271193;-83
2021/01/31 09:47:25;;;;;;;;;;;8.00;99.90;;;;;;5;36019522;41273763;-85
2021/01/31 09:50:50;;;;;;;;;;;8.10;99.90;;;;;;5;36017862;41273871;-85
2021/01/31 09:54:16;;;;;;;;;;;8.00;99.90;;;;;;5;36016794;42019753;-84
2021/01/31 09:57:31;;;;;;;;;;;7.90;99.90;;;;;;5;36016117;41270148;-84
2021/01/31 10:00:50;;;;;;;;;;;8.00;99.90;;;;;;5;36016281;41270731;-84
2021/01/31 10:04:17;;;;;;;;;;;8.00;99.90;;;;;;5;36018423;41269390;-86
2021/01/31 10:07:42;;;;;;;;;;;7.90;99.90;;;;;;5;36016532;41268871;-83
2021/01/31 10:11:17;;;;;;;;;;;7.90;99.90;;;;;;5;36015457;41267617;-83
2021/01/31 10:14:41;;;;;;;;;;;7.90;99.90;;;;;;5;36017680;41270196;-84
2021/01/31 10:18:01;;;;;;;;;;;7.90;99.90;;;;;;5;36016849;41271837;-83
2021/01/31 10:21:24;;;;;;;;;;;8.10;99.90;;;;;;5;36020559;41270666;-83
2021/01/31 10:24:44;;;;;;;;;;;8.20;99.90;;;;;;5;36016791;41270974;-85
2021/01/31 10:28:05;;;;;;;;;;;8.50;99.90;;;;;;5;36018904;42022203;-86
2021/01/31 10:31:30;;;;;;;;;;;8.80;99.90;;;;;;5;36018466;41273156;-84
2021/01/31 10:34:52;;;;;;;;;;;9.20;99.90;;;;;;5;36017687;41273653;-86
2021/01/31 10:38:25;;;;;;;;;;;9.60;99.90;;;;;;5;36021758;41275944;-90
2021/01/31 10:41:44;;;;;;;;;;;9.60;99.90;;;;;;5;36018533;41273507;-84
2021/01/31 10:45:06;;;;;;;;;;;9.70;99.90;;;;;;5;36019465;41273020;-92
2021/01/31 10:48:26;;;;;;;;;;;10.10;99.90;;;;;;5;36018013;41272873;-86
2021/01/31 10:51:42;;;;;;;;;;;10.50;99.90;;;;;;5;36019690;41271700;-86
2021/01/31 10:55:03;;;;;;;;;;;10.90;99.90;;;;;;5;36019058;41273078;-85
2021/01/31 10:58:25;;;;;;;;;;;11.20;99.90;;;;;;5;36017379;41271827;-86
2021/01/31 11:01:47;;;;;;;;;;;10.90;99.90;;;;;;5;36017853;42020536;-86
2021/01/31 11:05:04;;;;;;;;;;;10.70;99.90;;;;;;5;36019340;41271000;-85
2021/01/31 11:08:24;;;;;;;;;;;10.50;99.90;;;;;;5;36017151;41270092;-85
2021/01/31 11:11:44;;;;;;;;;;;10.20;99.90;;;;;;5;35761782;41271497;-87
2021/01/31 11:15:05;;;;;;;;;;;10.10;99.90;;;;;;5;36015938;41269563;-86
2021/01/31 11:18:20;;;;;;;;;;;10.00;99.90;;;;;;5;36017490;41271053;-85
2021/01/31 11:21:40;;;;;;;;;;;10.00;99.90;;;;;;5;36016831;41270872;-86
2021/01/31 11:25:00;;;;;;;;;;;10.10;99.90;;;;;;5;36018390;41270985;-86
2021/01/31 11:28:20;;;;;;;;;;;9.80;99.90;;;;;;5;36016727;41269856;-85
2021/01/31 11:31:35;;;;;;;;;;;9.80;99.90;;;;;;5;36017900;41271227;-85
2021/01/31 11:34:55;;;;;;;;;;;9.80;99.90;;;;;;5;36017941;42021470;-86
2021/01/31 11:38:21;;;;;;;;;;;9.70;99.90;;;;;;5;36016773;41270764;-85
2021/01/31 11:41:41;;;;;;;;;;;9.50;99.90;;;;;;5;36017315;41270339;-85
2021/01/31 11:44:57;;;;;;;;;;;9.40;99.90;;;;;;5;36019036;41270370;-86
2021/01/31 11:48:17;;;;;;;;;;;9.20;99.90;;;;;;5;36017554;41268789;-85
2021/01/31 11:51:37;;;;;;;;;;;9.20;99.90;;;;;;5;36016251;41269194;-86
2021/01/31 11:54:59;;;;;;;;;;;9.20;99.90;;;;;;5;36018059;41272169;-85
2021/01/31 11:58:14;;;;;;;;;;;9.30;99.90;;;;;;5;36016564;41269239;-86
2021/01/31 12:01:36;;;;;;;;;;;9.40;99.90;;;;;;5;36018707;41269677;-85
2021/01/31 12:04:57;;;;;;;;;;;9.50;99.90;;;;;;5;36017137;41268446;-86
2021/01/31 12:08:19;;;;;;;;;;;9.50;99.90;;;;;;5;36017437;42019195;-85
2021/01/31 12:11:34;;;;;;;;;;;9.50;99.90;;;;;;5;36017828;41269774;-85
2021/01/31 12:14:53;;;;;;;;;;;9.50;99.90;;;;;;5;36016934;41269518;-84
2021/01/31 12:18:14;;;;;;;;;;;9.50;99.90;;;;;;5;36017102;41270196;-87
2021/01/31 12:21:34;;;;;;;;;;;9.50;99.90;;;;;;5;36017582;41268675;-86
2021/01/31 12:24:52;;;;;;;;;;;9.50;99.90;;;;;;5;36018524;41269359;-84
2021/01/31 12:28:11;;;;;;;;;;;9.60;99.90;;;;;;5;36017005;41269477;-85
2021/01/31 12:31:31;;;;;;;;;;;9.50;99.90;;;;;;5;36017362;41270435;-85
2021/01/31 12:34:51;;;;;;;;;;;9.50;99.90;;;;;;5;36017127;41270641;-84
2021/01/31 12:38:06;;;;;;;;;;;9.60;99.90;;;;;;5;36016755;41269431;-85
2021/01/31 12:41:27;;;;;;;;;;;9.70;99.90;;;;;;5;36017090;42020678;-85
2021/01/31 12:44:47;;;;;;;;;;;9.80;99.90;;;;;;5;36017640;41269643;-84
2021/01/31 12:48:07;;;;;;;;;;;9.80;99.90;;;;;;5;36016909;41269156;-85
2021/01/31 12:51:36;;;;;;;;;;;9.90;99.90;;;;;;5;36017843;41268593;-85
2021/01/31 12:54:55;;;;;;;;;;;9.90;99.90;;;;;;5;36013858;41267451;-84
2021/01/31 12:58:15;;;;;;;;;;;9.90;99.90;;;;;;5;36014645;41269387;-83
2021/01/31 13:01:36;;;;;;;;;;;9.90;99.90;;;;;;5;36014504;41269704;-84
2021/01/31 13:04:51;;;;;;;;;;;9.80;99.90;;;;;;5;36017065;41272819;-83
2021/01/31 13:08:10;;;;;;;;;;;9.70;99.90;;;;;;5;36017343;41270722;-84
2021/01/31 13:11:30;;;;;;;;;;;9.60;99.90;;;;;;5;36015763;41270299;-83
2021/01/31 13:14:52;;;;;;;;;;;9.50;99.90;;;;;;5;36019589;42021548;-84
2021/01/31 13:18:07;;;;;;;;;;;9.40;99.90;;;;;;5;36016102;41271379;-84
2021/01/31 13:21:26;;;;;;;;;;;9.30;99.90;;;;;;5;36019745;41269251;-82
2021/01/31 13:24:46;;;;;;;;;;;9.30;99.90;;;;;;5;36018907;41269888;-84
2021/01/31 13:28:06;;;;;;;;;;;9.30;99.90;;;;;;5;36017505;41271355;-83
2021/01/31 13:31:21;;;;;;;;;;;9.40;99.90;;;;;;5;36016189;41270718;-83
2021/01/31 13:34:43;;;;;;;;;;;9.60;99.90;;;;;;5;36018293;41271944;-82
2021/01/31 13:38:03;;;;;;;;;;;9.90;99.90;;;;;;5;36017293;41271234;-82
2021/01/31 13:41:23;;;;;;;;;;;10.10;99.90;;;;;;5;36020033;41269967;-82
2021/01/31 13:44:40;;;;;;;;;;;10.30;99.90;;;;;;5;36017352;41269905;-82
2021/01/31 13:48:01;;;;;;;;;;;10.30;99.90;;;;;;5;36018972;42019379;-85
2021/01/31 13:51:21;;;;;;;;;;;10.20;99.90;;;;;;5;36017887;41271250;-83
2021/01/31 13:54:41;;;;;;;;;;;10.10;99.90;;;;;;5;36016562;41271962;-82
2021/01/31 13:57:56;;;;;;;;;;;10.00;99.90;;;;;;5;36017987;41269069;-82
2021/01/31 14:01:14;;;;;;;;;;;10.00;99.90;;;;;;5;36018609;41269753;-83
2021/01/31 14:04:35;;;;;;;;;;;9.90;99.90;;;;;;5;36018541;41269795;-83
2021/01/31 14:07:55;;;;;;;;;;;9.80;99.90;;;;;;5;36019351;41269876;-81
2021/01/31 14:11:10;;;;;;;;;;;9.80;99.90;;;;;;5;36016668;41271079;-83
2021/01/31 14:14:28;;;;;;;;;;;9.90;99.90;;;;;;5;36017095;41269906;-83
2021/01/31 14:17:50;;;;;;;;;;;9.80;99.90;;;;;;5;36017128;41270340;-85
2021/01/31 14:21:11;;;;;;;;;;;9.70;99.90;;;;;;5;36016891;42020429;-84
2021/01/31 14:24:26;;;;;;;;;;;9.80;99.90;;;;;;5;36017054;41270973;-83
2021/01/31 14:27:45;;;;;;;;;;;9.70;99.90;;;;;;5;36018777;41270089;-83
2021/01/31 14:31:10;;;;;;;;;;;9.70;99.90;;;;;;5;36018742;41268647;-81
2021/01/31 14:34:30;;;;;;;;;;;9.70;99.90;;;;;;5;36018458;41268728;-80
2021/01/31 14:37:45;;;;;;;;;;;9.60;99.90;;;;;;5;36017834;41270299;-81
2021/01/31 14:41:04;;;;;;;;;;;9.60;99.90;;;;;;5;36017474;41269189;-82
2021/01/31 14:44:25;;;;;;;;;;;9.60;99.90;;;;;;5;36017242;41270282;-81
2021/01/31 14:47:45;;;;;;;;;;;9.60;99.90;;;;;;5;36016045;41270924;-82
2021/01/31 14:51:02;;;;;;;;;;;9.50;99.90;;;;;;5;36016871;41269514;-80
2021/01/31 14:54:22;;;;;;;;;;;9.40;99.90;;;;;;5;36017551;42020755;-80
2021/01/31 14:57:42;;;;;;;;;;;9.20;99.90;;;;;;5;36016165;41273144;-81
2021/01/31 15:01:03;;;;;;;;;;;9.10;99.90;;;;;;5;36018406;41271417;-82
2021/01/31 15:04:19;;;;;;;;;;;9.00;99.90;;;;;;5;36017555;41269575;-83
2021/01/31 15:07:38;;;;;;;;;;;8.90;99.90;;;;;;5;36018230;41270675;-82
2021/01/31 15:10:58;;;;;;;;;;;8.90;99.90;;;;;;5;36017989;41270547;-82
2021/01/31 15:14:18;;;;;;;;;;;8.70;99.90;;;;;;5;36017200;41269196;-82
2021/01/31 15:17:34;;;;;;;;;;;8.70;99.90;;;;;;5;36017723;41269749;-82
2021/01/31 15:20:53;;;;;;;;;;;8.60;99.90;;;;;;5;36017352;41269844;-81
2021/01/31 15:24:13;;;;;;;;;;;8.60;99.90;;;;;;5;36016746;41270687;-80
2021/01/31 15:27:35;;;;;;;;;;;8.60;99.90;;;;;;5;36018119;42020010;-81
2021/01/31 15:30:50;;;;;;;;;;;8.60;99.90;;;;;;5;36015745;41270015;-78
2021/01/31 15:34:09;;;;;;;;;;;8.50;99.90;;;;;;5;36017553;41270680;-80
2021/01/31 15:37:29;;;;;;;;;;;8.50;99.90;;;;;;5;36016631;41270880;-81
2021/01/31 15:40:49;;;;;;;;;;;8.50;99.90;;;;;;5;36015594;41269307;-80
2021/01/31 15:44:04;;;;;;;;;;;8.40;99.90;;;;;;5;36015989;41269545;-81
2021/01/31 15:47:23;;;;;;;;;;;8.40;99.90;;;;;;5;36017513;41270022;-80
2021/01/31 15:50:43;;;;;;;;;;;8.30;99.90;;;;;;5;36018873;41271064;-80
2021/01/31 15:54:03;;;;;;;;;;;8.30;99.90;;;;;;5;36019227;41269343;-79
2021/01/31 15:57:18;;;;;;;;;;;8.30;99.90;;;;;;5;36016492;41269717;-79
2021/01/31 16:00:38;;;;;;;;;;;8.20;99.90;;;;;;5;36016887;42020609;-82
2021/01/31 16:03:58;;;;;;;;;;;8.20;99.90;;;;;;5;36016953;41269332;-82
2021/01/31 16:07:19;;;;;;;;;;;8.10;99.90;;;;;;5;36017117;41268959;-80
2021/01/31 16:10:33;;;;;;;;;;;8.10;99.90;;;;;;5;36017540;41268188;-81
2021/01/31 16:13:52;;;;;;;;;;;8.10;99.90;;;;;;5;36015650;41268273;-80
2021/01/31 16:17:13;;;;;;;;;;;8.10;99.90;;;;;;5;36019168;41272458;-80
2021/01/31 16:20:33;;;;;;;;;;;8.00;99.90;;;;;;5;36018177;41270462;-82
2021/01/31 16:23:48;;;;;;;;;;;8.00;99.90;;;;;;5;36018653;41270988;-82
2021/01/31 16:27:07;;;;;;;;;;;8.00;99.90;;;;;;5;36016397;41271265;-82
2021/01/31 16:30:29;;;;;;;;;;;7.90;99.90;;;;;;5;36016053;41272022;-81
2021/01/31 16:33:50;;;;;;;;;;;7.90;99.90;;;;;;5;36017175;42022233;-81
2021/01/31 16:37:09;;;;;;;;;;;7.90;99.90;;;;;;5;36018798;41274107;-81
2021/01/31 16:40:28;;;;;;;;;;;7.80;99.90;;;;;;5;36016822;41270563;-82
2021/01/31 16:43:49;;;;;;;;;;;7.80;99.90;;;;;;5;36018722;41271316;-82
2021/01/31 16:47:09;;;;;;;;;;;7.80;99.90;;;;;;5;36017615;41272622;-81
2021/01/31 16:50:24;;;;;;;;;;;7.80;99.90;;;;;;5;36016452;41269968;-81
2021/01/31 16:53:43;;;;;;;;;;;7.70;99.90;;;;;;5;36017718;41273082;-81
2021/01/31 16:57:03;;;;;;;;;;;7.70;99.90;;;;;;5;36017296;41272362;-80
2021/01/31 17:00:25;;;;;;;;;;;7.70;99.90;;;;;;5;36017026;41271945;-80
2021/01/31 17:03:40;;;;;;;;;;;7.70;99.90;;;;;;5;36017138;41269778;-80
2021/01/31 17:07:00;;;;;;;;;;;7.70;99.90;;;;;;5;36017248;42023117;-80
2021/01/31 17:10:23;;;;;;;;;;;7.70;99.90;;;;;;5;36017678;41269463;-80
2021/01/31 17:13:43;;;;;;;;;;;7.70;99.90;;;;;;5;36017993;41269991;-80
2021/01/31 17:16:58;;;;;;;;;;;7.70;99.90;;;;;;5;36019231;41269682;-79
2021/01/31 17:20:17;;;;;;;;;;;7.70;99.90;;;;;;5;36017511;41270555;-80
2021/01/31 17:23:37;;;;;;;;;;;7.60;99.90;;;;;;5;36018190;41270067;-80
2021/01/31 17:26:57;;;;;;;;;;;7.50;99.90;;;;;;5;36018790;41270441;-80
2021/01/31 17:30:13;;;;;;;;;;;7.50;99.90;;;;;;5;36016643;41270368;-80
2021/01/31 17:33:32;;;;;;;;;;;7.50;99.90;;;;;;5;36017588;41270602;-81
2021/01/31 17:36:52;;;;;;;;;;;7.40;99.90;;;;;;5;36020122;41271177;-80
2021/01/31 17:40:14;;;;;;;;;;;7.40;99.90;;;;;;5;36018832;42019691;-82
2021/01/31 17:43:29;;;;;;;;;;;7.20;99.90;;;;;;5;36018748;41269721;-79
2021/01/31 17:46:49;;;;;;;;;;;7.00;99.90;;;;;;5;36016924;41271272;-81
2021/01/31 17:50:10;;;;;;;;;;;6.90;99.90;;;;;;5;36019134;41270018;-81
2021/01/31 17:53:30;;;;;;;;;;;6.80;99.90;;;;;;5;36016852;41270157;-80
2021/01/31 17:56:45;;;;;;;;;;;6.80;99.90;;;;;;5;36016759;41270127;-82
2021/01/31 18:00:08;;;;;;;;;;;6.80;99.90;;;;;;5;36018368;41272209;-83
2021/01/31 18:03:28;;;;;;;;;;;6.80;99.90;;;;;;5;36019256;41269638;-82
2021/01/31 18:06:48;;;;;;;;;;;6.80;99.90;;;;;;5;36017576;41269347;-84
2021/01/31 18:10:04;;;;;;;;;;;6.80;99.90;;;;;;5;36016906;41269767;-81
2021/01/31 18:13:24;;;;;;;;;;;6.70;99.90;;;;;;5;36017678;42020379;-83
2021/01/31 18:16:44;;;;;;;;;;;6.60;99.90;;;;;;5;36018082;41269573;-82
2021/01/31 18:20:05;;;;;;;;;;;6.60;99.90;;;;;;5;36017717;41269116;-82
2021/01/31 18:23:20;;;;;;;;;;;6.70;99.90;;;;;;5;36019946;41270481;-83
2021/01/31 18:26:38;;;;;;;;;;;6.70;99.90;;;;;;5;36018042;41269884;-82
2021/01/31 18:29:58;;;;;;;;;;;6.70;99.90;;;;;;5;36016765;41269482;-84
2021/01/31 18:33:19;;;;;;;;;;;6.60;99.90;;;;;;5;36015952;41269503;-81
2021/01/31 18:36:34;;;;;;;;;;;6.50;99.90;;;;;;5;36016961;41269011;-83
2021/01/31 18:39:52;;;;;;;;;;;6.60;99.90;;;;;;5;36017092;41269953;-82
2021/01/31 18:43:12;;;;;;;;;;;6.60;99.90;;;;;;5;36017807;41270065;-83
2021/01/31 18:46:34;;;;;;;;;;;6.60;99.90;;;;;;5;36017056;42021170;-83
2021/01/31 18:49:49;;;;;;;;;;;6.50;99.90;;;;;;5;36016319;41269267;-82
2021/01/31 18:53:08;;;;;;;;;;;6.50;99.90;;;;;;5;36016769;41270022;-84
2021/01/31 18:56:29;;;;;;;;;;;6.40;99.90;;;;;;5;36017302;41268499;-84
2021/01/31 18:59:49;;;;;;;;;;;6.40;99.90;;;;;;5;36015784;41268814;-83
2021/01/31 19:03:04;;;;;;;;;;;6.40;99.90;;;;;;5;36017082;41268938;-82
2021/01/31 19:06:22;;;;;;;;;;;6.30;99.90;;;;;;5;36016231;41269502;-83
2021/01/31 19:09:43;;;;;;;;;;;6.30;99.90;;;;;;5;36017302;41268990;-82
2021/01/31 19:13:03;;;;;;;;;;;6.30;99.90;;;;;;5;36015684;41267220;-81
2021/01/31 19:16:21;;;;;;;;;;;6.30;99.90;;;;;;5;36015701;41268855;-84
2021/01/31 19:19:42;;;;;;;;;;;6.40;99.90;;;;;;5;36016292;42019377;-81
2021/01/31 19:23:02;;;;;;;;;;;6.40;99.90;;;;;;5;36017192;41269788;-82
2021/01/31 19:26:22;;;;;;;;;;;6.30;99.90;;;;;;5;36020883;41271231;-83
2021/01/31 19:29:37;;;;;;;;;;;6.30;99.90;;;;;;5;36017690;41270509;-84
2021/01/31 19:32:56;;;;;;;;;;;6.20;99.90;;;;;;5;36019216;41270631;-83
2021/01/31 19:36:16;;;;;;;;;;;6.20;99.90;;;;;;5;36016180;41269625;-81
2021/01/31 19:39:36;;;;;;;;;;;6.20;99.90;;;;;;5;36016751;41269623;-82
2021/01/31 19:42:51;;;;;;;;;;;6.30;99.90;;;;;;5;36015674;41273336;-82
2021/01/31 19:46:11;;;;;;;;;;;6.30;99.90;;;;;;5;36020557;41271423;-83
2021/01/31 19:49:33;;;;;;;;;;;6.30;99.90;;;;;;5;36019633;41274136;-82
2021/01/31 19:52:55;;;;;;;;;;;6.30;99.90;;;;;;5;36017362;42017007;-83
2021/01/31 19:56:10;;;;;;;;;;;6.30;99.90;;;;;;5;36015079;41267916;-83
2021/01/31 19:59:29;;;;;;;;;;;6.30;99.90;;;;;;5;36018284;41271947;-82
2021/01/31 20:02:49;;;;;;;;;;;6.30;99.90;;;;;;5;36018631;41269589;-84
2021/01/31 20:06:09;;;;;;;;;;;6.30;99.90;;;;;;5;36015669;41273022;-84
2021/01/31 20:09:24;;;;;;;;;;;6.30;99.90;;;;;;5;36021300;41269100;-84
2021/01/31 20:12:44;;;;;;;;;;;6.30;99.90;;;;;;5;36015722;41270605;-82
2021/01/31 20:16:07;;;;;;;;;;;6.30;99.90;;;;;;5;36015138;41268471;-83
2021/01/31 20:19:27;;;;;;;;;;;6.30;99.90;;;;;;5;36015932;41269242;-83
2021/01/31 20:22:42;;;;;;;;;;;6.40;99.90;;;;;;5;36015939;41269418;-83
2021/01/31 20:26:03;;;;;;;;;;;6.30;99.90;;;;;;5;36021535;42020716;-83
2021/01/31 20:29:23;;;;;;;;;;;6.30;99.90;;;;;;5;36016321;41269462;-83
2021/01/31 20:32:43;;;;;;;;;;;6.20;99.90;;;;;;5;36016209;41271325;-84
2021/01/31 20:35:58;;;;;;;;;;;6.10;99.90;;;;;;5;36018969;41272691;-83
2021/01/31 20:39:17;;;;;;;;;;;6.00;99.90;;;;;;5;36016896;41271835;-83
2021/01/31 20:42:39;;;;;;;;;;;5.90;99.90;;;;;;5;36018850;41271946;-83
2021/01/31 20:46:00;;;;;;;;;;;5.90;99.90;;;;;;5;36016813;41270651;-84
2021/01/31 20:49:14;;;;;;;;;;;5.80;99.90;;;;;;5;36016327;41271963;-83
2021/01/31 20:52:33;;;;;;;;;;;5.70;99.90;;;;;;5;36019009;41269932;-84
2021/01/31 20:55:53;;;;;;;;;;;5.70;99.90;;;;;;5;36018237;41270292;-84
2021/01/31 20:59:15;;;;;;;;;;;5.60;99.90;;;;;;5;36017969;42019573;-84
2021/01/31 21:02:30;;;;;;;;;;;5.60;99.90;;;;;;5;36019498;41269227;-84
2021/01/31 21:05:49;;;;;;;;;;;5.50;99.90;;;;;;5;36017393;41270458;-82
2021/01/31 21:09:09;;;;;;;;;;;5.40;99.90;;;;;;5;36018029;41271064;-81
2021/01/31 21:12:29;;;;;;;;;;;5.40;99.90;;;;;;5;36016682;41269104;-82
2021/01/31 21:15:44;;;;;;;;;;;5.40;99.90;;;;;;5;36017818;41275009;-82
2021/01/31 21:19:03;;;;;;;;;;;5.40;99.90;;;;;;5;36015306;41271754;-84
2021/01/31 21:22:23;;;;;;;;;;;5.40;99.90;;;;;;5;36018340;41269754;-85
2021/01/31 21:25:43;;;;;;;;;;;5.40;99.90;;;;;;5;36019700;41270290;-84
2021/01/31 21:28:58;;;;;;;;;;;5.40;99.90;;;;;;5;36024683;41268384;-81
2021/01/31 21:32:18;;;;;;;;;;;5.40;99.90;;;;;;5;36018124;42018761;-82
2021/01/31 21:35:38;;;;;;;;;;;5.50;99.90;;;;;;5;36017049;41271539;-86
2021/01/31 21:38:58;;;;;;;;;;;5.50;99.90;;;;;;5;36016469;41268451;-81
2021/01/31 21:42:13;;;;;;;;;;;5.50;99.90;;;;;;5;36018066;41268269;-82
2021/01/31 21:45:32;;;;;;;;;;;5.50;99.90;;;;;;5;36017273;41269485;-83
2021/01/31 21:48:52;;;;;;;;;;;5.50;99.90;;;;;;5;36017883;41270724;-83
2021/01/31 21:52:12;;;;;;;;;;;5.60;99.90;;;;;;5;36016779;41269918;-82
2021/01/31 21:55:27;;;;;;;;;;;5.60;99.90;;;;;;5;36018932;41271352;-83
2021/01/31 21:58:56;;;;;;;;;;;5.70;99.90;;;;;;5;36016048;41267833;-82
2021/01/31 22:02:26;;;;;;;;;;;5.70;99.90;;;;;;5;36014713;41269772;-83
2021/01/31 22:06:04;;;;;;;;;;;5.70;99.90;;;;;;5;36019128;42019390;-83
2021/01/31 22:09:19;;;;;;;;;;;5.80;99.90;;;;;;5;36016552;41271035;-83
2021/01/31 22:12:37;;;;;;;;;;;5.90;99.90;;;;;;5;36017085;41269707;-83
2021/01/31 22:15:58;;;;;;;;;;;5.90;99.90;;;;;;5;36015300;41269694;-82
2021/01/31 22:19:18;;;;;;;;;;;5.80;99.90;;;;;;5;36016374;41269031;-82
2021/01/31 22:22:33;;;;;;;;;;;5.90;99.90;;;;;;5;36015816;41268681;-82
2021/01/31 22:25:51;;;;;;;;;;;5.90;99.90;;;;;;5;36017091;41270678;-83
2021/01/31 22:29:12;;;;;;;;;;;5.90;99.90;;;;;;5;36016654;41268569;-82
2021/01/31 22:32:32;;;;;;;;;;;5.90;99.90;;;;;;5;36015921;41269543;-83
2021/01/31 22:35:47;;;;;;;;;;;5.90;99.90;;;;;;5;36016613;41269956;-83
2021/01/31 22:39:07;;;;;;;;;;;5.80;99.90;;;;;;5;36017911;42020735;-81
2021/01/31 22:42:27;;;;;;;;;;;5.70;99.90;;;;;;5;36016562;41270127;-83
2021/01/31 22:45:47;;;;;;;;;;;5.60;99.90;;;;;;5;36017525;41269969;-83
2021/01/31 22:49:02;;;;;;;;;;;5.60;99.90;;;;;;5;36014959;41271466;-83
2021/01/31 22:52:21;;;;;;;;;;;5.50;99.90;;;;;;5;36017386;41269784;-84
2021/01/31 22:55:42;;;;;;;;;;;5.50;99.90;;;;;;5;36017727;41269578;-84
2021/01/31 22:59:02;;;;;;;;;;;5.40;99.90;;;;;;5;36017239;41270601;-83
